Time;durP1;ratioP1;P1;durP2;ratioP2;P2;SDS_P1;SDS_P2;PMS_P1;PMS_P2;Temp;Humidity;BMP_temperature;BMP_pressure;BME280_temperature;BME280_humidity;BME280_pressure;Samples;Min_cycle;Max_cycle;Signal;HPM_P1;HPM_P2
2023/01/12 00:02:24;;;;;;;26.70;4.68;;;;;;;10.26;100.00;98705.81;5065489;28;20047;-52
2023/01/12 00:04:51;;;;;;;23.23;4.68;;;;;;;10.23;100.00;98701.84;5068756;28;20063;-45
2023/01/12 00:07:19;;;;;;;18.20;4.28;;;;;;;10.22;100.00;98703.03;5068122;28;20420;-43
2023/01/12 00:09:45;;;;;;;28.10;4.57;;;;;;;10.19;100.00;98703.81;5068167;28;20083;-43
2023/01/12 00:12:13;;;;;;;24.88;6.05;;;;;;;10.18;100.00;98721.59;5068028;28;20063;-47
2023/01/12 00:14:40;;;;;;;28.60;6.57;;;;;;;10.17;100.00;98720.00;5067904;28;20162;-44
2023/01/12 00:17:07;;;;;;;30.25;6.18;;;;;;;10.15;100.00;98722.38;5057815;28;20056;-44
2023/01/12 00:19:37;;;;;;;32.28;6.30;;;;;;;10.14;100.00;98729.06;5066428;28;20718;-45
2023/01/12 00:22:10;;;;;;;29.45;4.80;;;;;;;10.14;100.00;98729.06;5067380;28;20442;-43
2023/01/12 00:24:45;;;;;;;36.08;4.78;;;;;;;10.15;100.00;98725.13;5060482;28;20056;-44
2023/01/12 00:27:15;;;;;;;25.75;4.28;;;;;;;10.17;100.00;98736.59;5063272;28;20070;-47
2023/01/12 00:29:42;;;;;;;30.85;6.80;;;;;;;10.18;100.00;98734.63;5067954;28;20050;-44
2023/01/12 00:32:13;;;;;;;22.02;5.63;;;;;;;10.20;100.00;98735.81;5068083;28;20064;-43
2023/01/12 00:34:40;;;;;;;28.27;5.07;;;;;;;10.22;100.00;98738.97;5056007;28;20063;-43
2023/01/12 00:37:07;;;;;;;24.55;7.60;;;;;;;10.24;100.00;98753.22;5068164;28;20092;-44
2023/01/12 00:39:38;;;;;;;21.00;4.70;;;;;;;10.23;100.00;98751.63;5067984;28;20094;-43
2023/01/12 00:47:42;;;;;;;37.42;8.48;;;;;;;10.10;100.00;98757.88;5064435;28;20123;-44
2023/01/12 00:50:09;;;;;;;34.83;6.25;;;;;;;10.08;100.00;98765.78;5067590;28;20048;-43
2023/01/12 00:52:36;;;;;;;26.27;6.47;;;;;;;10.05;100.00;98756.28;5067695;28;20051;-44
2023/01/12 00:55:03;;;;;;;30.58;5.85;;;;;;;10.05;100.00;98755.47;5067202;28;20049;-44
2023/01/12 00:57:30;;;;;;;29.13;6.03;;;;;;;10.05;100.00;98759.06;5065696;28;20134;-44
2023/01/12 00:59:58;;;;;;;24.90;5.57;;;;;;;10.06;100.00;98760.63;5064899;28;20072;-43
2023/01/12 01:02:27;;;;;;;30.00;7.65;;;;;;;10.09;100.00;98756.28;5066771;28;20384;-46
2023/01/12 01:04:54;;;;;;;32.63;8.40;;;;;;;10.09;100.00;98781.97;5067253;28;20071;-44
2023/01/12 01:07:21;;;;;;;26.85;5.22;;;;;;;10.13;100.00;98793.06;5067010;28;20126;-44
2023/01/12 01:09:48;;;;;;;18.55;3.70;;;;;;;10.11;100.00;98782.34;5067014;28;20049;-50
2023/01/12 01:12:15;;;;;;;23.85;6.18;;;;;;;10.08;100.00;98776.81;5067562;28;20043;-43
2023/01/12 01:14:41;;;;;;;34.40;5.72;;;;;;;10.04;100.00;98787.06;5067324;28;20045;-43
2023/01/12 01:17:08;;;;;;;41.03;6.15;;;;;;;9.97;100.00;98782.31;5061494;28;20433;-44
2023/01/12 01:19:35;;;;;;;26.88;7.32;;;;;;;9.90;100.00;98776.75;5066975;28;20052;-44
2023/01/12 01:22:02;;;;;;;33.45;6.40;;;;;;;9.84;100.00;98783.84;5066447;28;20418;-43
2023/01/12 01:24:29;;;;;;;43.75;7.78;;;;;;;9.80;100.00;98783.00;5066263;28;20041;-43
2023/01/12 01:26:56;;;;;;;31.35;8.25;;;;;;;9.76;100.00;98796.84;5066483;28;20459;-44
2023/01/12 01:29:22;;;;;;;34.97;7.68;;;;;;;9.76;100.00;98794.06;5067369;28;20063;-43
2023/01/12 01:31:49;;;;;;;27.45;6.45;;;;;;;9.77;100.00;98789.31;5046606;28;20528;-45
2023/01/12 01:34:16;;;;;;;32.90;7.72;;;;;;;9.76;100.00;98782.22;5054397;28;20041;-44
2023/01/12 01:36:43;;;;;;;47.33;7.20;;;;;;;9.76;100.00;98793.28;5063876;28;20059;-44
2023/01/12 01:39:11;;;;;;;44.03;7.15;;;;;;;9.77;100.00;98792.06;5065198;28;20049;-44
2023/01/12 01:41:37;;;;;;;38.58;7.05;;;;;;;9.78;100.00;98801.97;5064040;28;20124;-44
2023/01/12 01:44:26;;;;;;;33.22;6.68;;;;;;;9.80;100.00;98794.88;5066146;28;20037;-44
2023/01/12 01:46:56;;;;;;;31.00;6.80;;;;;;;9.80;100.00;98794.06;5062976;28;20052;-45
2023/01/12 01:49:32;;;;;;;30.70;6.28;;;;;;;9.81;100.00;98815.00;5062568;28;20048;-47
2023/01/12 01:52:21;;;;;;;26.77;6.18;;;;;;;9.81;100.00;98820.53;5061919;28;20163;-44
2023/01/12 01:54:54;;;;;;;30.10;6.57;;;;;;;9.80;100.00;98807.88;5035258;28;20165;-43
2023/01/12 01:57:25;;;;;;;32.35;6.20;;;;;;;9.79;100.00;98811.84;5062342;28;20060;-45
2023/01/12 01:59:54;;;;;;;39.38;6.03;;;;;;;9.74;100.00;98806.69;5055006;28;20080;-44
2023/01/12 02:02:24;;;;;;;33.88;8.48;;;;;;;9.73;100.00;98819.72;5064493;28;20048;-44
2023/01/12 02:04:54;;;;;;;24.70;5.38;;;;;;;9.73;100.00;98818.91;5072099;28;20071;-44
2023/01/12 02:07:20;;;;;;;26.42;4.80;;;;;;;9.75;100.00;98811.03;5066082;28;20405;-47
2023/01/12 02:09:47;;;;;;;33.10;7.32;;;;;;;9.76;100.00;98820.91;5066551;28;20402;-44
2023/01/12 02:18:23;;;;;;;24.15;5.40;;;;;;;9.76;100.00;98827.22;5062033;28;20037;-43
2023/01/12 02:21:25;;;;;;;23.38;5.97;;;;;;;9.76;100.00;98823.66;5032210;28;20067;-44
2023/01/12 02:24:22;;;;;;;23.75;4.40;;;;;;;9.76;100.00;98818.16;5066062;28;20044;-44
2023/01/12 02:27:28;;;;;;;33.75;6.05;;;;;;;9.74;100.00;98818.50;5065895;28;20053;-44
2023/01/12 02:30:34;;;;;;;32.70;6.60;;;;;;;9.71;100.00;98829.56;5066057;28;20040;-48
2023/01/12 02:33:17;;;;;;;32.38;6.60;;;;;;;9.68;100.00;98824.81;5027897;28;20132;-49
2023/01/12 02:35:57;;;;;;;34.05;8.77;;;;;;;9.69;100.00;98831.91;5061730;28;20509;-46
2023/01/12 02:38:48;;;;;;;26.10;5.05;;;;;;;9.69;100.00;98834.66;5071335;28;20466;-47
2023/01/12 02:44:31;;;;;;;32.38;7.85;;;;;;;9.69;100.00;98842.94;5064465;28;20045;-44
2023/01/12 02:47:00;;;;;;;36.08;7.15;;;;;;;9.67;100.00;98840.59;5064516;28;20071;-45
2023/01/12 02:49:33;;;;;;;23.15;4.55;;;;;;;9.64;100.00;98837.78;5067018;28;20052;-46
2023/01/12 02:52:06;;;;;;;31.13;7.85;;;;;;;9.64;100.00;98830.31;5057578;28;20049;-44
2023/01/12 02:54:35;;;;;;;25.80;5.78;;;;;;;9.66;100.00;98852.81;5055065;28;20040;-44
2023/01/12 02:57:06;;;;;;;23.92;4.50;;;;;;;9.66;100.00;98839.00;5076324;28;20675;-45
2023/01/12 02:59:36;;;;;;;27.58;5.78;;;;;;;9.64;100.00;98837.78;5049487;28;20190;-47
2023/01/12 03:02:15;;;;;;;21.88;4.82;;;;;;;9.64;100.00;98843.31;5107775;22;20049;-44
2023/01/12 03:04:42;;;;;;;21.20;3.50;;;;;;;9.62;100.00;98848.44;5067123;28;20069;-49
2023/01/12 03:07:46;;;;;;;25.48;4.57;;;;;;;9.63;100.00;98848.06;5069589;28;20052;-46
2023/01/12 03:10:17;;;;;;;35.83;7.47;;;;;;;9.62;100.00;98859.50;5067412;28;20102;-46
2023/01/12 03:12:44;;;;;;;29.10;4.95;;;;;;;9.60;100.00;98861.84;5070114;28;20056;-44
2023/01/12 03:15:16;;;;;;;28.55;5.07;;;;;;;9.61;100.00;98857.94;5069439;28;20094;-45
2023/01/12 03:17:50;;;;;;;28.92;4.53;;;;;;;9.57;100.00;98846.03;5069661;28;20067;-54
2023/01/12 03:20:27;;;;;;;25.27;5.07;;;;;;;9.56;100.00;98841.69;5069766;28;20055;-46
2023/01/12 03:23:00;;;;;;;41.05;8.23;;;;;;;9.52;100.00;98855.50;5069584;28;20056;-45
2023/01/12 03:25:30;;;;;;;28.13;5.15;;;;;;;9.50;100.00;98860.63;5069548;28;20040;-44
2023/01/12 03:27:59;;;;;;;23.98;4.63;;;;;;;9.47;100.00;98852.28;5070109;28;20098;-43
2023/01/12 03:30:35;;;;;;;26.98;5.65;;;;;;;9.43;100.00;98855.00;5069683;28;20048;-44
2023/01/12 03:33:06;;;;;;;16.95;5.10;;;;;;;9.42;100.00;98860.94;5068529;28;20164;-44
2023/01/12 03:35:39;;;;;;;17.00;4.47;;;;;;;9.43;100.00;98856.97;5066686;28;20044;-44
2023/01/12 03:38:24;;;;;;;25.80;3.85;;;;;;;9.46;100.00;98861.75;5063763;28;20040;-43
2023/01/12 03:41:02;;;;;;;21.88;4.93;;;;;;;9.44;100.00;98869.63;5061306;28;20043;-44
2023/01/12 03:43:51;;;;;;;23.58;4.40;;;;;;;9.41;100.00;98865.66;5065745;28;20040;-43
2023/01/12 03:46:30;;;;;;;24.58;3.40;;;;;;;9.37;100.00;98880.63;5064869;28;20051;-44
2023/01/12 03:49:52;;;;;;;18.15;3.88;;;;;;;9.38;100.00;98868.38;5067257;28;20099;-44
2023/01/12 03:52:23;;;;;;;16.95;3.20;;;;;;;9.38;100.00;98873.91;5014982;28;20061;-43
2023/01/12 03:54:52;;;;;;;17.98;4.38;;;;;;;9.40;100.00;98860.53;5054685;28;20040;-43
2023/01/12 03:57:20;;;;;;;19.30;3.58;;;;;;;9.43;100.00;98843.16;5065531;28;20041;-43
2023/01/12 03:59:47;;;;;;;19.73;3.80;;;;;;;9.44;100.00;98853.06;5064427;28;20470;-43
2023/01/12 04:02:14;;;;;;;25.75;4.10;;;;;;;9.43;100.00;98849.50;5061995;28;20059;-44
2023/01/12 04:04:41;;;;;;;20.27;3.58;;;;;;;9.43;100.00;98848.69;5060412;28;20053;-43
2023/01/12 04:07:08;;;;;;;14.15;3.33;;;;;;;9.42;100.00;98860.94;5064023;28;20405;-43
2023/01/12 04:09:34;;;;;;;24.73;4.93;;;;;;;9.40;100.00;98855.00;5068223;28;20051;-43
2023/01/12 04:12:11;;;;;;;21.65;3.13;;;;;;;9.39;100.00;98858.94;5067788;28;20049;-46
2023/01/12 04:14:40;;;;;;;17.27;2.85;;;;;;;9.38;100.00;98855.38;5068168;28;20490;-44
2023/01/12 04:17:08;;;;;;;16.17;2.90;;;;;;;9.36;100.00;98857.72;5067748;28;20257;-45
2023/01/12 04:19:35;;;;;;;16.20;3.00;;;;;;;9.35;100.00;98861.66;5068722;28;20051;-43
2023/01/12 04:24:47;;;;;;;27.83;5.00;;;;;;;9.38;100.00;98843.53;5068038;28;20441;-43
2023/01/12 04:27:15;;;;;;;21.80;3.78;;;;;;;9.41;100.00;98840.81;5067240;28;20055;-44
2023/01/12 04:29:42;;;;;;;17.60;3.42;;;;;;;9.39;100.00;98837.63;5067530;28;20064;-43
2023/01/12 04:32:10;;;;;;;17.70;3.85;;;;;;;9.38;100.00;98832.47;5067560;28;20413;-47
2023/01/12 04:34:38;;;;;;;17.45;4.40;;;;;;;9.34;100.00;98820.63;5065845;28;20139;-43
2023/01/12 04:37:05;;;;;;;28.73;3.38;;;;;;;9.31;100.00;98821.41;5064747;28;20044;-43
2023/01/12 04:39:31;;;;;;;26.27;3.88;;;;;;;9.26;100.00;98821.75;5064601;28;20044;-45
2023/01/12 04:41:58;;;;;;;21.33;4.72;;;;;;;9.27;100.00;98817.78;5062360;28;20490;-49
2023/01/12 04:44:25;;;;;;;28.73;4.45;;;;;;;9.29;100.00;98834.78;5064447;28;20490;-43
2023/01/12 04:46:51;;;;;;;20.65;4.78;;;;;;;9.27;100.00;98820.56;5063980;28;20596;-43
2023/01/12 04:49:18;;;;;;;23.10;3.88;;;;;;;9.28;100.00;98822.94;5063758;28;20102;-45
2023/01/12 04:51:45;;;;;;;21.33;3.97;;;;;;;9.27;100.00;98817.78;5063843;28;20059;-45
2023/01/12 04:54:12;;;;;;;24.35;4.93;;;;;;;9.25;100.00;98817.41;5062628;28;20036;-48
2023/01/12 04:56:38;;;;;;;20.85;5.25;;;;;;;9.25;100.00;98795.31;5063773;28;20135;-43
2023/01/12 04:59:07;;;;;;;24.85;5.03;;;;;;;9.24;100.00;98826.88;5064417;28;20055;-43
2023/01/12 05:01:35;;;;;;;24.33;5.22;;;;;;;9.23;100.00;98809.50;5061516;28;20202;-50
2023/01/12 05:04:02;;;;;;;18.08;3.50;;;;;;;9.22;100.00;98812.63;5063935;28;20139;-43
2023/01/12 05:06:32;;;;;;;17.98;3.78;;;;;;;9.20;100.00;98818.56;5065006;28;20060;-43
2023/01/12 05:11:45;;;;;;;14.40;3.63;;;;;;;9.19;100.00;98809.47;5064850;28;20042;-44
2023/01/12 05:14:12;;;;;;;45.28;6.55;;;;;;;9.21;100.00;98797.25;5065115;28;20086;-43
2023/01/12 05:16:39;;;;;;;27.75;4.95;;;;;;;9.23;100.00;98798.47;5065380;28;20049;-43
2023/01/12 05:19:06;;;;;;;29.08;4.18;;;;;;;9.26;100.00;98794.16;5065612;28;20044;-43
2023/01/12 05:21:32;;;;;;;29.73;6.40;;;;;;;9.27;100.00;98787.44;5064256;28;20058;-49
2023/01/12 05:23:59;;;;;;;26.45;4.10;;;;;;;9.26;100.00;98783.91;5058525;28;20048;-44
2023/01/12 05:26:25;;;;;;;30.95;6.93;;;;;;;9.26;100.00;98770.09;5063320;28;20040;-43
2023/01/12 05:28:52;;;;;;;20.52;4.95;;;;;;;9.25;100.00;98762.16;5065241;28;20398;-43
2023/01/12 05:31:19;;;;;;;17.55;3.35;;;;;;;9.27;100.00;98759.81;5059984;28;20055;-42
2023/01/12 05:33:47;;;;;;;19.17;3.38;;;;;;;9.29;100.00;98751.97;5065754;28;20052;-43
2023/01/12 05:36:15;;;;;;;15.48;4.07;;;;;;;9.28;100.00;98755.88;5063875;28;20137;-43
2023/01/12 05:38:42;;;;;;;15.70;5.93;;;;;;;9.27;100.00;98751.53;5065465;28;20106;-42
2023/01/12 05:41:10;;;;;;;15.95;4.68;;;;;;;9.25;100.00;98740.09;5063815;28;20062;-48
2023/01/12 05:43:49;;;;;;;17.23;2.88;;;;;;;9.24;100.00;98735.75;5062096;28;20489;-43
2023/01/12 05:46:24;;;;;;;13.38;3.35;;;;;;;9.22;100.00;98729.81;5065848;28;20056;-44
2023/01/12 05:48:52;;;;;;;18.27;4.80;;;;;;;9.20;100.00;98730.19;5064600;28;20056;-47
2023/01/12 05:51:19;;;;;;;12.48;2.78;;;;;;;9.19;100.00;98729.41;5066408;28;20037;-43
2023/01/12 05:53:46;;;;;;;13.10;2.58;;;;;;;9.17;100.00;98729.00;5065400;28;20134;-42
2023/01/12 05:56:25;;;;;;;25.25;3.95;;;;;;;9.18;100.00;98719.56;5063754;28;20033;-43
2023/01/12 05:58:57;;;;;;;13.07;3.03;;;;;;;9.17;100.00;98717.16;5060203;28;20072;-47
2023/01/12 06:01:25;;;;;;;12.30;3.00;;;;;;;9.20;100.00;98710.88;5061523;28;20109;-43
2023/01/12 06:03:55;;;;;;;18.85;4.13;;;;;;;9.23;100.00;98703.78;5064162;28;20102;-43
2023/01/12 06:06:23;;;;;;;26.00;3.83;;;;;;;9.26;100.00;98708.56;5061176;28;20519;-46
2023/01/12 06:08:51;;;;;;;10.32;2.83;;;;;;;9.27;100.00;98707.34;5065971;28;20051;-45
2023/01/12 06:14:05;;;;;;;19.02;2.92;;;;;;;9.33;100.00;98720.41;5066224;28;20759;-51
2023/01/12 06:16:32;;;;;;;14.27;3.38;;;;;;;9.35;100.00;98729.09;5066228;28;20079;-43
2023/01/12 06:19:00;;;;;;;11.13;3.30;;;;;;;9.38;100.00;98722.81;5065786;28;20052;-46
2023/01/12 06:21:26;;;;;;;12.45;3.00;;;;;;;9.42;100.00;98717.31;5066465;28;20052;-43
2023/01/12 06:23:53;;;;;;;24.45;4.68;;;;;;;9.45;100.00;98711.03;5066970;28;20490;-48
2023/01/12 06:26:20;;;;;;;19.73;3.42;;;;;;;9.45;100.00;98691.69;5070147;28;20102;-44
2023/01/12 06:28:47;;;;;;;14.30;3.28;;;;;;;9.45;100.00;98699.97;5069101;28;20055;-45
2023/01/12 06:31:14;;;;;;;20.88;3.53;;;;;;;9.45;100.00;98705.50;5069211;28;20050;-44
2023/01/12 06:33:41;;;;;;;15.80;3.00;;;;;;;9.46;100.00;98696.03;5070728;28;20525;-43
2023/01/12 06:36:09;;;;;;;13.45;3.75;;;;;;;9.46;100.00;98679.44;5068546;28;20056;-46
2023/01/12 06:38:37;;;;;;;15.93;2.78;;;;;;;9.45;100.00;98683.41;5068042;28;20052;-43
2023/01/12 06:41:06;;;;;;;25.80;3.85;;;;;;;9.45;100.00;98694.44;5068177;28;20036;-43
2023/01/12 06:43:33;;;;;;;18.23;3.05;;;;;;;9.43;100.00;98680.22;5066287;28;20051;-43
2023/01/12 06:46:00;;;;;;;8.82;2.22;;;;;;;9.44;100.00;98684.56;5068099;28;20489;-43
2023/01/12 06:48:27;;;;;;;10.07;2.75;;;;;;;9.46;100.00;98677.47;5068817;28;20053;-43
2023/01/12 06:51:05;;;;;;;17.25;3.85;;;;;;;9.47;100.00;98686.56;5068429;28;20059;-44
2023/01/12 06:53:31;;;;;;;10.93;2.20;;;;;;;9.47;100.00;98686.56;5069697;28;20368;-44
2023/01/12 06:55:58;;;;;;;11.10;3.25;;;;;;;9.47;100.00;98678.28;5067546;28;20486;-44
2023/01/12 06:58:25;;;;;;;8.18;2.53;;;;;;;9.46;100.00;98671.16;5068956;28;20086;-49
2023/01/12 07:00:51;;;;;;;15.60;2.35;;;;;;;9.46;100.00;98673.91;5066253;28;20494;-45
2023/01/12 07:03:19;;;;;;;11.30;3.92;;;;;;;9.46;100.00;98663.66;5064435;28;20072;-44
2023/01/12 07:05:45;;;;;;;9.07;2.08;;;;;;;9.45;100.00;98647.50;5067776;28;20323;-44
2023/01/12 07:08:14;;;;;;;16.45;3.80;;;;;;;9.47;100.00;98658.94;5062765;28;20504;-46
2023/01/12 07:10:42;;;;;;;10.45;1.88;;;;;;;9.51;100.00;98648.69;5067521;28;20394;-44
2023/01/12 07:13:08;;;;;;;7.70;2.38;;;;;;;9.55;100.00;98638.47;5065331;28;20098;-43
2023/01/12 07:15:35;;;;;;;19.75;2.33;;;;;;;9.56;100.00;98640.81;5066993;28;20044;-45
2023/01/12 07:18:02;;;;;;;13.35;2.78;;;;;;;9.60;100.00;98644.41;5067215;28;20497;-43
2023/01/12 07:20:31;;;;;;;8.20;2.42;;;;;;;9.60;100.00;98638.09;5069255;28;20048;-43
2023/01/12 07:22:57;;;;;;;3.63;1.55;;;;;;;9.60;100.00;98629.78;5066793;28;20045;-45
2023/01/12 07:25:25;;;;;;;10.63;1.88;;;;;;;9.60;100.00;98619.53;5062954;28;20048;-43
2023/01/12 07:27:54;;;;;;;12.85;2.03;;;;;;;9.60;100.00;98633.34;5066557;28;20037;-44
2023/01/12 07:30:22;;;;;;;10.02;1.55;;;;;;;9.58;100.00;98621.13;5057774;28;20392;-43
2023/01/12 07:32:49;;;;;;;7.97;2.35;;;;;;;9.57;100.00;98628.59;5067634;28;20419;-44
2023/01/12 07:35:17;;;;;;;7.97;1.30;;;;;;;9.60;100.00;98635.31;5066388;28;20067;-44
2023/01/12 07:37:52;;;;;;;10.70;2.03;;;;;;;9.62;100.00;98619.13;5068418;28;20067;-51
2023/01/12 07:40:19;;;;;;;7.15;1.70;;;;;;;9.66;100.00;98617.19;5065646;28;20040;-43
2023/01/12 07:42:46;;;;;;;8.57;2.40;;;;;;;9.68;100.00;98612.06;5066597;28;20138;-43
2023/01/12 07:45:13;;;;;;;16.60;2.63;;;;;;;9.69;100.00;98624.66;5063476;28;20059;-42
2023/01/12 07:47:39;;;;;;;15.25;2.13;;;;;;;9.67;100.00;98618.75;5062641;28;20516;-46
2023/01/12 07:50:07;;;;;;;12.40;1.65;;;;;;;9.62;100.00;98616.38;5068207;28;20045;-44
2023/01/12 07:52:34;;;;;;;6.50;1.30;;;;;;;9.60;100.00;98613.22;5068070;28;20052;-42
2023/01/12 07:55:00;;;;;;;5.82;1.48;;;;;;;9.61;100.00;98623.09;5064443;28;20059;-43
2023/01/12 07:57:28;;;;;;;4.97;0.98;;;;;;;9.61;100.00;98610.06;5068232;28;20055;-43
2023/01/12 07:59:54;;;;;;;6.57;1.00;;;;;;;9.58;100.00;98599.78;5068458;28;20059;-48
2023/01/12 08:02:21;;;;;;;8.75;1.88;;;;;;;9.57;100.00;98597.41;5065281;28;20064;-43
2023/01/12 08:04:48;;;;;;;11.00;1.48;;;;;;;9.58;100.00;98599.00;5056588;28;20102;-44
2023/01/12 08:07:15;;;;;;;10.98;1.98;;;;;;;9.58;100.00;98610.06;5067675;28;20059;-46
2023/01/12 08:09:41;;;;;;;5.68;1.40;;;;;;;9.59;100.00;98589.53;5068510;28;20558;-48
2023/01/12 08:12:08;;;;;;;15.93;3.17;;;;;;;9.65;100.00;98604.53;5068028;28;20041;-48
2023/01/12 08:14:37;;;;;;;6.15;1.63;;;;;;;9.66;100.00;98584.03;5068346;28;20052;-44
2023/01/12 08:17:08;;;;;;;7.32;1.52;;;;;;;9.65;99.89;98604.53;5068093;28;20139;-44
2023/01/12 08:19:53;;;;;;;10.52;1.45;;;;;;;9.63;99.94;98606.91;5067944;28;20454;-44
2023/01/12 08:22:26;;;;;;;8.18;2.08;;;;;;;9.59;99.26;98595.03;5068076;28;20044;-43
2023/01/12 08:24:59;;;;;;;7.80;1.70;;;;;;;9.57;98.91;98614.00;5066253;28;20052;-46
2023/01/12 08:27:30;;;;;;;7.55;2.22;;;;;;;9.56;98.73;98615.16;5060555;28;20037;-45
2023/01/12 08:29:58;;;;;;;8.18;1.98;;;;;;;9.52;98.44;98611.63;5059634;28;20047;-43
2023/01/12 08:32:28;;;;;;;19.73;2.50;;;;;;;9.45;98.09;98622.66;5062929;28;20490;-45
2023/01/12 08:34:59;;;;;;;22.23;3.15;;;;;;;9.43;97.69;98624.97;5063045;28;20063;-45
2023/01/12 08:37:33;;;;;;;14.02;2.83;;;;;;;9.38;96.45;98622.59;5051216;28;20045;-45
2023/01/12 08:40:00;;;;;;;;;;;;;;;9.30;95.90;98609.94;5060961;28;20051;-43
2023/01/12 08:42:27;;;;;;;19.27;4.18;;;;;;;9.25;95.50;98618.59;5068939;28;20387;-47
2023/01/12 08:44:57;;;;;;;29.38;4.55;;;;;;;9.22;94.58;98611.09;5067879;28;20059;-49
2023/01/12 08:47:27;;;;;;;18.40;3.38;;;;;;;9.19;93.67;98605.16;5068940;28;20114;-44
2023/01/12 08:49:54;;;;;;;26.67;4.55;;;;;;;9.17;93.13;98613.06;5068458;28;20072;-44
2023/01/12 08:52:22;;;;;;;23.13;3.97;;;;;;;9.13;92.60;98620.50;5069268;28;20078;-47
2023/01/12 08:54:48;;;;;;;26.67;5.53;;;;;;;9.11;91.97;98603.56;5068281;28;20044;-43
2023/01/12 08:57:17;;;;;;;24.25;5.43;;;;;;;9.09;91.90;98613.41;5068122;28;20059;-47
2023/01/12 08:59:44;;;;;;;24.50;5.65;;;;;;;9.06;91.84;98620.50;5068145;28;20044;-45
2023/01/12 09:02:12;;;;;;;28.30;6.32;;;;;;;9.05;91.63;98624.41;5067052;28;20059;-44
2023/01/12 09:04:40;;;;;;;27.48;5.82;;;;;;;9.04;91.88;98639.41;5066809;28;20040;-45
2023/01/12 09:07:08;;;;;;;19.05;3.85;;;;;;;8.92;89.88;98656.28;5059285;28;20060;-44
2023/01/12 09:09:35;;;;;;;22.67;4.50;;;;;;;8.75;89.14;98656.97;5053652;28;20044;-44
2023/01/12 09:12:02;;;;;;;21.27;5.63;;;;;;;8.45;88.01;98640.59;5068994;28;20056;-43
2023/01/12 09:14:29;;;;;;;16.73;5.07;;;;;;;8.23;88.58;98619.50;5057683;28;20055;-47
2023/01/12 09:16:56;;;;;;;23.17;3.92;;;;;;;8.08;89.21;98645.34;5058501;28;20045;-44
2023/01/12 09:19:23;;;;;;;23.67;4.90;;;;;;;7.94;89.56;98651.50;5063663;28;20052;-42
2023/01/12 09:21:49;;;;;;;24.52;5.30;;;;;;;7.84;90.18;98646.69;5063733;28;20053;-46
2023/01/12 09:24:16;;;;;;;22.58;5.85;;;;;;;7.75;90.55;98654.47;5067337;28;20076;-44
2023/01/12 09:26:45;;;;;;;29.30;6.03;;;;;;;7.66;90.98;98684.25;5063435;28;20490;-44
2023/01/12 09:29:13;;;;;;;24.05;5.57;;;;;;;7.56;91.30;98651.91;5061357;28;20048;-44
2023/01/12 09:31:42;;;;;;;27.02;4.30;;;;;;;7.49;91.35;98648.28;5066602;28;20040;-43
2023/01/12 09:34:10;;;;;;;23.58;4.70;;;;;;;7.44;91.71;98660.38;5056250;28;20147;-43
2023/01/12 09:36:38;;;;;;;25.65;5.53;;;;;;;7.39;91.87;98668.97;5059877;28;20479;-44
2023/01/12 09:39:06;;;;;;;24.35;5.20;;;;;;;7.34;92.10;98652.78;5060893;28;20053;-48
2023/01/12 09:47:43;;;;;;;36.75;5.68;;;;;;;7.26;91.88;98637.34;5059795;28;20040;-43
2023/01/12 09:50:24;;;;;;;17.17;4.95;;;;;;;7.28;91.53;98651.56;5067947;28;20044;-43
2023/01/12 09:53:17;;;;;;;35.75;5.47;;;;;;;7.31;91.11;98639.78;5064883;28;20041;-46
2023/01/12 09:55:54;;;;;;;29.70;5.07;;;;;;;7.32;90.98;98644.91;5063146;28;20057;-44
2023/01/12 09:58:32;;;;;;;11.98;3.15;;;;;;;7.32;90.72;98646.88;5053622;28;20036;-43
2023/01/12 10:01:06;;;;;;;17.77;4.72;;;;;;;7.32;90.97;98647.69;5058595;28;20056;-43
2023/01/12 10:03:38;;;;;;;25.67;4.90;;;;;;;7.34;91.10;98663.81;5069023;28;20370;-44
2023/01/12 10:06:05;;;;;;;36.67;6.50;;;;;;;7.34;91.24;98639.03;5066546;28;20040;-49
2023/01/12 10:08:37;;;;;;;29.98;6.53;;;;;;;7.35;91.36;98640.63;5065796;28;20044;-45
2023/01/12 10:11:15;;;;;;;34.55;6.43;;;;;;;7.36;91.42;98650.44;5061472;28;20056;-44
2023/01/12 10:14:10;;;;;;;24.00;4.70;;;;;;;7.39;91.20;98646.19;5071273;28;20123;-45
2023/01/12 10:17:13;;;;;;;25.48;7.53;;;;;;;7.42;91.26;98639.91;5067938;28;20047;-49
2023/01/12 10:19:52;;;;;;;38.65;6.32;;;;;;;7.46;90.96;98638.00;5061610;28;20044;-43
2023/01/12 10:22:36;;;;;;;37.65;6.60;;;;;;;7.51;90.72;98663.25;5071172;28;20555;-49
2023/01/12 10:25:14;;;;;;;34.08;7.38;;;;;;;7.59;90.45;98661.34;5038988;28;20071;-44
2023/01/12 10:27:43;;;;;;;34.85;8.27;;;;;;;7.63;90.19;98660.22;5065716;28;20033;-50
2023/01/12 10:30:17;;;;;;;33.33;7.50;;;;;;;7.69;90.35;98678.00;5070558;28;20152;-45
2023/01/12 10:32:44;;;;;;;21.17;5.05;;;;;;;7.68;90.11;98662.63;5067040;28;20124;-44
2023/01/12 10:35:16;;;;;;;26.10;4.72;;;;;;;7.54;90.02;98640.47;5075803;28;20139;-48
2023/01/12 10:37:45;;;;;;;22.83;4.18;;;;;;;7.47;89.65;98678.91;5064416;28;20048;-42
2023/01/12 10:40:38;;;;;;;18.95;4.32;;;;;;;7.41;89.44;98663.91;5072051;28;20048;-42
2023/01/12 10:43:22;;;;;;;15.40;4.38;;;;;;;7.37;89.63;98652.06;5062234;28;20139;-43
2023/01/12 10:46:09;;;;;;;27.88;7.78;;;;;;;7.36;89.46;98653.19;5070737;28;20493;-42
2023/01/12 10:48:38;;;;;;;36.05;7.35;;;;;;;7.40;88.90;98659.56;5061715;28;20111;-45
2023/01/12 10:51:17;;;;;;;32.70;5.88;;;;;;;7.43;89.07;98664.31;5070037;28;20044;-42
2023/01/12 10:53:49;;;;;;;26.35;5.60;;;;;;;7.47;88.63;98664.34;5071879;28;20372;-45
2023/01/12 10:56:25;;;;;;;27.73;6.95;;;;;;;7.52;88.09;98656.56;5061937;28;20040;-44
2023/01/12 10:59:02;;;;;;;27.88;7.22;;;;;;;7.57;87.66;98692.00;5062938;28;20494;-44
2023/01/12 11:02:05;;;;;;;30.05;5.32;;;;;;;7.62;86.68;98683.44;5069132;28;20082;-44
2023/01/12 11:04:42;;;;;;;29.00;5.82;;;;;;;7.65;85.74;98673.63;5039229;28;20041;-44
2023/01/12 11:07:29;;;;;;;21.77;7.38;;;;;;;7.71;85.26;98700.44;5070889;28;20049;-44
2023/01/12 11:10:36;;;;;;;31.80;7.72;;;;;;;7.75;84.75;98664.69;5066405;28;20052;-47
2023/01/12 11:13:04;;;;;;;24.17;6.55;;;;;;;7.77;84.69;98665.91;5061325;28;20052;-43
2023/01/12 11:15:37;;;;;;;22.40;6.13;;;;;;;7.81;84.93;98654.94;5064995;28;20044;-45
2023/01/12 11:18:17;;;;;;;27.92;7.13;;;;;;;7.86;84.70;98649.84;5064454;28;20580;-44
2023/01/12 11:21:00;;;;;;;26.30;6.30;;;;;;;7.97;84.09;98633.41;5066110;28;20127;-44
2023/01/12 11:23:36;;;;;;;32.97;7.07;;;;;;;8.11;84.16;98661.13;5067840;28;20090;-44
2023/01/12 11:26:15;;;;;;;29.38;6.30;;;;;;;8.17;83.86;98664.34;5069895;28;20048;-44
2023/01/12 11:28:48;;;;;;;34.42;7.65;;;;;;;8.09;83.26;98684.72;5068684;28;20054;-45
2023/01/12 11:31:38;;;;;;;20.58;5.80;;;;;;;7.92;82.62;98647.53;5067547;28;20066;-46
2023/01/12 11:34:19;;;;;;;21.15;4.85;;;;;;;7.66;82.99;98667.75;5069089;28;20052;-43
2023/01/12 11:36:49;;;;;;;30.85;5.43;;;;;;;7.49;83.59;98681.31;5067657;28;20059;-47
2023/01/12 11:39:24;;;;;;;16.80;5.15;;;;;;;7.39;84.06;98665.47;5061928;28;20067;-50
2023/01/12 11:44:54;;;;;;;30.67;6.40;;;;;;;7.30;84.89;98632.69;5064995;28;20044;-44
2023/01/12 11:47:25;;;;;;;31.00;6.90;;;;;;;7.29;85.04;98636.63;5068287;28;20417;-43
2023/01/12 11:50:12;;;;;;;28.23;6.50;;;;;;;7.31;85.01;98634.28;5054447;28;20458;-43
2023/01/12 11:52:39;;;;;;;30.30;5.68;;;;;;;7.34;85.00;98633.53;5065505;28;20151;-44
2023/01/12 11:55:14;;;;;;;27.20;5.63;;;;;;;7.37;84.89;98627.28;5068618;28;20072;-44
2023/01/12 11:57:59;;;;;;;34.63;6.88;;;;;;;7.34;84.75;98633.53;5061833;28;20216;-42
2023/01/12 12:00:35;;;;;;;27.05;6.80;;;;;;;7.36;84.54;98636.69;5066598;28;20045;-44
2023/01/12 12:03:30;;;;;;;28.77;8.48;;;;;;;7.40;84.46;98632.03;5066653;28;20040;-44
2023/01/12 12:06:09;;;;;;;33.70;6.22;;;;;;;7.44;84.47;98643.88;5063809;28;20040;-47
2023/01/12 12:08:42;;;;;;;29.83;6.35;;;;;;;7.46;84.45;98596.72;5064299;28;20040;-46
2023/01/12 12:11:23;;;;;;;18.40;3.60;;;;;;;7.48;84.26;98617.19;5065731;28;20437;-44
2023/01/12 12:14:28;;;;;;;21.92;5.68;;;;;;;7.52;83.87;98606.22;5067515;28;20083;-48
2023/01/12 12:17:12;;;;;;;20.13;5.43;;;;;;;7.54;83.07;98588.16;4994508;28;20408;-47
2023/01/12 12:19:57;;;;;;;22.98;4.07;;;;;;;7.59;82.85;98579.56;5062482;28;20061;-46
2023/01/12 12:22:33;;;;;;;23.30;4.95;;;;;;;7.62;82.52;98562.28;5056161;28;20048;-44
2023/01/12 12:25:15;;;;;;;19.73;4.00;;;;;;;7.65;81.93;98577.25;5057992;28;20045;-51